Terminal Aerodrome Forecast
Issued by NWS Austin/San Antonio, TX

Home | Current Version | Previous Version | Text Only | Print | Product List | Glossary On
Versions: 1 2 3 4 5 6 7 8 9 10 11 12 13 14 15 16 17 18 19 20 21 22 23
836
FTUS44 KEWX 220522
TAFDRT
TAF
KDRT 220522Z 2206/2306 27022G32KT P6SM SCT100
     FM220800 30028G38KT P6SM SKC
     FM222200 32015G25KT P6SM SKC
     FM230100 32005KT P6SM SKC=

USA.gov is the U.S. government's official web portal to all federal, state and local government web resources and services.